sensor_id;sensor_type;location;lat;lon;timestamp;noise_LAeq;noise_LA_min;noise_LA_max;noise_LA01;noise_LA95
66459;Laerm;70605;52.550;4.730;2024-01-30T00:00:09;44.48;43.56;47.55;;
66459;Laerm;70605;52.550;4.730;2024-01-30T00:00:19;44.70;43.53;48.19;;
66459;Laerm;70605;52.550;4.730;2024-01-30T00:00:29;44.35;43.50;45.97;;
66459;Laerm;70605;52.550;4.730;2024-01-30T00:00:40;44.41;43.38;46.05;;
66459;Laerm;70605;52.550;4.730;2024-01-30T00:00:50;44.44;43.46;46.11;;
66459;Laerm;70605;52.550;4.730;2024-01-30T00:01:00;44.30;42.97;45.07;;
66459;Laerm;70605;52.550;4.730;2024-01-30T00:01:11;44.55;43.59;47.32;;
66459;Laerm;70605;52.550;4.730;2024-01-30T00:01:21;44.47;43.62;46.14;;
66459;Laerm;70605;52.550;4.730;2024-01-30T00:01:31;44.51;43.39;47.03;;
66459;Laerm;70605;52.550;4.730;2024-01-30T00:01:42;44.87;43.61;50.81;;
66459;Laerm;70605;52.550;4.730;2024-01-30T00:01:52;45.07;43.57;48.07;;
66459;Laerm;70605;52.550;4.730;2024-01-30T00:02:02;44.76;43.60;49.42;;
66459;Laerm;70605;52.550;4.730;2024-01-30T00:02:13;44.91;43.65;49.79;;
66459;Laerm;70605;52.550;4.730;2024-01-30T00:02:23;44.60;43.76;48.19;;
66459;Laerm;70605;52.550;4.730;2024-01-30T00:02:33;44.32;43.53;46.09;;
66459;Laerm;70605;52.550;4.730;2024-01-30T00:02:43;44.37;43.48;45.84;;
66459;Laerm;70605;52.550;4.730;2024-01-30T00:02:55;44.28;43.31;45.35;;
66459;Laerm;70605;52.550;4.730;2024-01-30T00:03:06;44.27;43.48;45.13;;
66459;Laerm;70605;52.550;4.730;2024-01-30T00:03:16;44.35;43.56;46.01;;
66459;Laerm;70605;52.550;4.730;2024-01-30T00:03:26;44.33;43.51;45.41;;
66459;Laerm;70605;52.550;4.730;2024-01-30T00:03:37;44.34;43.13;45.28;;
66459;Laerm;70605;52.550;4.730;2024-01-30T00:03:47;44.33;43.28;46.34;;
66459;Laerm;70605;52.550;4.730;2024-01-30T00:03:57;44.34;43.58;45.81;;
66459;Laerm;70605;52.550;4.730;2024-01-30T00:04:07;44.28;43.51;45.42;;
66459;Laerm;70605;52.550;4.730;2024-01-30T00:04:18;44.40;43.49;45.78;;
66459;Laerm;70605;52.550;4.730;2024-01-30T00:04:28;44.43;43.42;47.13;;
66459;Laerm;70605;52.550;4.730;2024-01-30T00:04:38;44.32;43.50;45.75;;
66459;Laerm;70605;52.550;4.730;2024-01-30T00:04:48;44.38;43.40;48.26;;
66459;Laerm;70605;52.550;4.730;2024-01-30T00:04:59;44.53;43.47;49.68;;
66459;Laerm;70605;52.550;4.730;2024-01-30T00:05:09;44.29;43.45;46.14;;
66459;Laerm;70605;52.550;4.730;2024-01-30T00:05:19;44.32;43.61;47.57;;
66459;Laerm;70605;52.550;4.730;2024-01-30T00:05:29;44.92;43.50;49.00;;
66459;Laerm;70605;52.550;4.730;2024-01-30T00:05:40;44.56;43.47;46.76;;
66459;Laerm;70605;52.550;4.730;2024-01-30T00:05:50;44.46;43.52;46.28;;
66459;Laerm;70605;52.550;4.730;2024-01-30T00:06:00;44.40;43.45;47.09;;
66459;Laerm;70605;52.550;4.730;2024-01-30T00:06:11;44.50;43.61;47.05;;
66459;Laerm;70605;52.550;4.730;2024-01-30T00:06:21;44.23;43.20;46.27;;
66459;Laerm;70605;52.550;4.730;2024-01-30T00:06:32;44.32;43.36;50.07;;
66459;Laerm;70605;52.550;4.730;2024-01-30T00:06:43;44.28;43.48;45.83;;
66459;Laerm;70605;52.550;4.730;2024-01-30T00:06:53;44.40;43.53;48.48;;
66459;Laerm;70605;52.550;4.730;2024-01-30T00:07:03;44.31;43.54;45.47;;
66459;Laerm;70605;52.550;4.730;2024-01-30T00:07:14;44.20;43.53;45.61;;
66459;Laerm;70605;52.550;4.730;2024-01-30T00:07:24;44.22;43.33;45.13;;
66459;Laerm;70605;52.550;4.730;2024-01-30T00:07:34;44.30;43.30;46.17;;
66459;Laerm;70605;52.550;4.730;2024-01-30T00:07:44;44.47;43.50;48.31;;
66459;Laerm;70605;52.550;4.730;2024-01-30T00:07:55;44.27;43.17;46.13;;
66459;Laerm;70605;52.550;4.730;2024-01-30T00:08:05;44.21;43.34;45.40;;
66459;Laerm;70605;52.550;4.730;2024-01-30T00:08:15;44.21;43.41;46.29;;
66459;Laerm;70605;52.550;4.730;2024-01-30T00:08:26;44.22;43.41;45.72;;
66459;Laerm;70605;52.550;4.730;2024-01-30T00:08:36;44.25;43.33;47.27;;
66459;Laerm;70605;52.550;4.730;2024-01-30T00:08:46;44.34;43.52;45.96;;
66459;Laerm;70605;52.550;4.730;2024-01-30T00:08:58;44.26;43.11;45.40;;
66459;Laerm;70605;52.550;4.730;2024-01-30T00:09:09;44.21;43.26;45.34;;
66459;Laerm;70605;52.550;4.730;2024-01-30T00:09:20;44.26;43.38;45.70;;
66459;Laerm;70605;52.550;4.730;2024-01-30T00:09:30;44.30;43.49;46.41;;
66459;Laerm;70605;52.550;4.730;2024-01-30T00:09:40;44.22;43.14;45.55;;
66459;Laerm;70605;52.550;4.730;2024-01-30T00:09:51;44.15;43.46;44.95;;
66459;Laerm;70605;52.550;4.730;2024-01-30T00:10:01;44.25;43.42;45.72;;
66459;Laerm;70605;52.550;4.730;2024-01-30T00:10:11;44.23;43.47;45.05;;
66459;Laerm;70605;52.550;4.730;2024-01-30T00:10:22;44.22;43.42;44.90;;
66459;Laerm;70605;52.550;4.730;2024-01-30T00:10:32;44.27;43.25;45.30;;
66459;Laerm;70605;52.550;4.730;2024-01-30T00:10:42;44.18;43.43;45.73;;
66459;Laerm;70605;52.550;4.730;2024-01-30T00:10:52;44.18;43.44;45.22;;
66459;Laerm;70605;52.550;4.730;2024-01-30T00:11:03;44.17;43.38;44.94;;
66459;Laerm;70605;52.550;4.730;2024-01-30T00:11:13;44.17;43.30;44.98;;
66459;Laerm;70605;52.550;4.730;2024-01-30T00:11:23;44.18;43.27;45.39;;
66459;Laerm;70605;52.550;4.730;2024-01-30T00:11:35;44.20;43.27;45.43;;
66459;Laerm;70605;52.550;4.730;2024-01-30T00:11:46;44.13;43.38;44.95;;
66459;Laerm;70605;52.550;4.730;2024-01-30T00:11:56;44.13;43.22;45.15;;
66459;Laerm;70605;52.550;4.730;2024-01-30T00:12:07;44.13;43.33;44.99;;
66459;Laerm;70605;52.550;4.730;2024-01-30T00:12:17;44.11;43.28;45.58;;
66459;Laerm;70605;52.550;4.730;2024-01-30T00:12:27;44.12;43.26;44.90;;
66459;Laerm;70605;52.550;4.730;2024-01-30T00:12:37;44.17;43.27;45.03;;
66459;Laerm;70605;52.550;4.730;2024-01-30T00:12:48;44.16;43.43;44.89;;
66459;Laerm;70605;52.550;4.730;2024-01-30T00:12:58;44.16;43.30;45.18;;
66459;Laerm;70605;52.550;4.730;2024-01-30T00:13:08;44.09;43.27;44.86;;
66459;Laerm;70605;52.550;4.730;2024-01-30T00:13:18;44.12;43.15;44.85;;
66459;Laerm;70605;52.550;4.730;2024-01-30T00:13:29;44.14;43.01;45.65;;
66459;Laerm;70605;52.550;4.730;2024-01-30T00:13:40;44.18;43.39;45.07;;
66459;Laerm;70605;52.550;4.730;2024-01-30T00:13:50;44.12;43.25;44.85;;
66459;Laerm;70605;52.550;4.730;2024-01-30T00:14:00;44.14;43.47;44.91;;
66459;Laerm;70605;52.550;4.730;2024-01-30T00:14:10;44.14;43.32;45.27;;
66459;Laerm;70605;52.550;4.730;2024-01-30T00:14:21;44.23;43.42;45.55;;
66459;Laerm;70605;52.550;4.730;2024-01-30T00:14:31;44.15;43.22;45.08;;
66459;Laerm;70605;52.550;4.730;2024-01-30T00:14:42;44.15;43.35;45.24;;
66459;Laerm;70605;52.550;4.730;2024-01-30T00:14:53;44.15;43.16;45.93;;
66459;Laerm;70605;52.550;4.730;2024-01-30T00:15:04;44.15;43.30;44.97;;
66459;Laerm;70605;52.550;4.730;2024-01-30T00:15:15;44.20;43.27;45.57;;
66459;Laerm;70605;52.550;4.730;2024-01-30T00:15:25;44.37;43.43;45.56;;
66459;Laerm;70605;52.550;4.730;2024-01-30T00:15:35;44.21;43.31;45.29;;
66459;Laerm;70605;52.550;4.730;2024-01-30T00:15:46;44.14;43.21;45.04;;
66459;Laerm;70605;52.550;4.730;2024-01-30T00:15:56;44.61;43.16;51.75;;
66459;Laerm;70605;52.550;4.730;2024-01-30T00:16:06;44.27;43.45;47.95;;
66459;Laerm;70605;52.550;4.730;2024-01-30T00:16:23;44.15;43.39;45.16;;
66459;Laerm;70605;52.550;4.730;2024-01-30T00:16:36;44.23;43.30;46.09;;
66459;Laerm;70605;52.550;4.730;2024-01-30T00:16:46;44.19;43.40;45.01;;
66459;Laerm;70605;52.550;4.730;2024-01-30T00:16:57;44.16;43.24;45.72;;
66459;Laerm;70605;52.550;4.730;2024-01-30T00:17:07;44.17;43.15;45.32;;
66459;Laerm;70605;52.550;4.730;2024-01-30T00:17:17;44.16;43.20;44.93;;
66459;Laerm;70605;52.550;4.730;2024-01-30T00:17:29;44.15;43.22;45.17;;
66459;Laerm;70605;52.550;4.730;2024-01-30T00:17:39;44.20;43.44;45.56;;
66459;Laerm;70605;52.550;4.730;2024-01-30T00:17:49;44.18;43.41;45.23;;
66459;Laerm;70605;52.550;4.730;2024-01-30T00:18:02;44.28;43.25;48.65;;
66459;Laerm;70605;52.550;4.730;2024-01-30T00:18:12;44.18;43.18;45.00;;
66459;Laerm;70605;52.550;4.730;2024-01-30T00:18:22;44.09;43.23;45.79;;
66459;Laerm;70605;52.550;4.730;2024-01-30T00:18:33;44.13;43.16;45.09;;
66459;Laerm;70605;52.550;4.730;2024-01-30T00:18:43;44.17;43.08;45.45;;
66459;Laerm;70605;52.550;4.730;2024-01-30T00:18:53;44.22;43.23;47.56;;
66459;Laerm;70605;52.550;4.730;2024-01-30T00:19:03;44.17;43.15;45.02;;
66459;Laerm;70605;52.550;4.730;2024-01-30T00:19:14;44.27;43.14;45.93;;
66459;Laerm;70605;52.550;4.730;2024-01-30T00:19:24;44.23;43.19;46.84;;
66459;Laerm;70605;52.550;4.730;2024-01-30T00:19:34;44.11;43.32;45.33;;
66459;Laerm;70605;52.550;4.730;2024-01-30T00:19:44;44.09;43.27;45.01;;
66459;Laerm;70605;52.550;4.730;2024-01-30T00:19:55;44.09;43.26;44.92;;
66459;Laerm;70605;52.550;4.730;2024-01-30T00:20:05;44.12;42.83;45.25;;
66459;Laerm;70605;52.550;4.730;2024-01-30T00:20:16;44.12;43.19;45.49;;
66459;Laerm;70605;52.550;4.730;2024-01-30T00:20:26;44.24;43.34;45.68;;
66459;Laerm;70605;52.550;4.730;2024-01-30T00:20:36;44.48;43.41;47.43;;
66459;Laerm;70605;52.550;4.730;2024-01-30T00:20:46;44.24;43.41;45.71;;
66459;Laerm;70605;52.550;4.730;2024-01-30T00:20:57;44.31;43.15;46.17;;
66459;Laerm;70605;52.550;4.730;2024-01-30T00:21:07;44.29;43.43;47.49;;
66459;Laerm;70605;52.550;4.730;2024-01-30T00:21:17;44.22;43.25;45.45;;
66459;Laerm;70605;52.550;4.730;2024-01-30T00:21:28;44.21;43.19;45.27;;
66459;Laerm;70605;52.550;4.730;2024-01-30T00:21:38;44.24;43.12;46.17;;
66459;Laerm;70605;52.550;4.730;2024-01-30T00:21:48;44.20;43.53;45.35;;
66459;Laerm;70605;52.550;4.730;2024-01-30T00:21:59;44.22;43.12;45.53;;
66459;Laerm;70605;52.550;4.730;2024-01-30T00:22:09;44.22;43.22;45.41;;
66459;Laerm;70605;52.550;4.730;2024-01-30T00:22:19;44.25;43.34;45.76;;
66459;Laerm;70605;52.550;4.730;2024-01-30T00:22:30;44.23;43.19;46.40;;
66459;Laerm;70605;52.550;4.730;2024-01-30T00:22:40;44.25;43.44;45.65;;
66459;Laerm;70605;52.550;4.730;2024-01-30T00:22:50;44.13;43.23;45.73;;
66459;Laerm;70605;52.550;4.730;2024-01-30T00:23:01;44.17;43.28;44.96;;
66459;Laerm;70605;52.550;4.730;2024-01-30T00:23:11;44.33;43.45;45.73;;
66459;Laerm;70605;52.550;4.730;2024-01-30T00:23:22;44.19;43.49;45.51;;
66459;Laerm;70605;52.550;4.730;2024-01-30T00:23:32;44.21;42.91;45.21;;
66459;Laerm;70605;52.550;4.730;2024-01-30T00:23:42;44.20;43.06;44.97;;
66459;Laerm;70605;52.550;4.730;2024-01-30T00:23:52;44.39;42.93;47.11;;
66459;Laerm;70605;52.550;4.730;2024-01-30T00:24:03;44.27;43.27;45.65;;
66459;Laerm;70605;52.550;4.730;2024-01-30T00:24:13;44.29;43.41;47.94;;
66459;Laerm;70605;52.550;4.730;2024-01-30T00:24:23;44.25;43.53;45.38;;
66459;Laerm;70605;52.550;4.730;2024-01-30T00:24:33;44.36;43.38;46.66;;
66459;Laerm;70605;52.550;4.730;2024-01-30T00:24:44;44.30;43.43;45.79;;
66459;Laerm;70605;52.550;4.730;2024-01-30T00:24:54;44.21;43.34;45.15;;
66459;Laerm;70605;52.550;4.730;2024-01-30T00:25:04;44.22;43.37;45.09;;
66459;Laerm;70605;52.550;4.730;2024-01-30T00:25:15;44.21;43.25;45.48;;
66459;Laerm;70605;52.550;4.730;2024-01-30T00:25:25;44.25;43.38;45.39;;
66459;Laerm;70605;52.550;4.730;2024-01-30T00:25:35;44.19;43.14;45.07;;
66459;Laerm;70605;52.550;4.730;2024-01-30T00:25:45;44.19;43.41;45.02;;
66459;Laerm;70605;52.550;4.730;2024-01-30T00:25:56;44.15;43.19;45.06;;
66459;Laerm;70605;52.550;4.730;2024-01-30T00:26:06;44.19;43.36;44.90;;
66459;Laerm;70605;52.550;4.730;2024-01-30T00:26:16;44.16;43.28;45.67;;
66459;Laerm;70605;52.550;4.730;2024-01-30T00:26:26;44.21;43.33;45.49;;
66459;Laerm;70605;52.550;4.730;2024-01-30T00:26:37;44.21;43.36;45.39;;
66459;Laerm;70605;52.550;4.730;2024-01-30T00:26:47;44.17;43.25;45.26;;
66459;Laerm;70605;52.550;4.730;2024-01-30T00:26:57;44.29;43.37;46.27;;
66459;Laerm;70605;52.550;4.730;2024-01-30T00:27:08;44.33;43.46;46.55;;
66459;Laerm;70605;52.550;4.730;2024-01-30T00:27:18;44.33;43.28;45.61;;
66459;Laerm;70605;52.550;4.730;2024-01-30T00:27:28;44.38;43.46;47.82;;
66459;Laerm;70605;52.550;4.730;2024-01-30T00:27:38;44.30;43.55;45.70;;
66459;Laerm;70605;52.550;4.730;2024-01-30T00:27:49;44.22;43.54;44.93;;
66459;Laerm;70605;52.550;4.730;2024-01-30T00:27:59;44.33;43.44;46.56;;
66459;Laerm;70605;52.550;4.730;2024-01-30T00:28:09;44.24;43.39;45.07;;
66459;Laerm;70605;52.550;4.730;2024-01-30T00:28:19;44.18;43.46;44.86;;
66459;Laerm;70605;52.550;4.730;2024-01-30T00:28:30;44.18;43.36;45.04;;
66459;Laerm;70605;52.550;4.730;2024-01-30T00:28:40;44.18;43.27;45.19;;
66459;Laerm;70605;52.550;4.730;2024-01-30T00:28:51;44.17;43.45;45.21;;
66459;Laerm;70605;52.550;4.730;2024-01-30T00:29:01;44.20;43.34;45.31;;
66459;Laerm;70605;52.550;4.730;2024-01-30T00:29:11;44.24;43.48;45.55;;
66459;Laerm;70605;52.550;4.730;2024-01-30T00:29:22;44.37;43.47;45.45;;
66459;Laerm;70605;52.550;4.730;2024-01-30T00:29:32;44.54;43.28;49.57;;
66459;Laerm;70605;52.550;4.730;2024-01-30T00:29:43;44.44;43.34;47.13;;
66459;Laerm;70605;52.550;4.730;2024-01-30T00:29:54;44.31;43.35;46.15;;
66459;Laerm;70605;52.550;4.730;2024-01-30T00:30:04;44.35;43.46;46.19;;
66459;Laerm;70605;52.550;4.730;2024-01-30T00:30:15;44.27;43.37;45.71;;
66459;Laerm;70605;52.550;4.730;2024-01-30T00:30:25;44.38;43.29;46.60;;
66459;Laerm;70605;52.550;4.730;2024-01-30T00:30:35;44.60;43.31;48.52;;
66459;Laerm;70605;52.550;4.730;2024-01-30T00:30:46;45.09;43.35;49.93;;
66459;Laerm;70605;52.550;4.730;2024-01-30T00:30:56;44.85;43.41;49.82;;
66459;Laerm;70605;52.550;4.730;2024-01-30T00:31:06;44.73;43.36;47.41;;
66459;Laerm;70605;52.550;4.730;2024-01-30T00:31:17;44.87;43.56;48.17;;
66459;Laerm;70605;52.550;4.730;2024-01-30T00:31:27;44.48;43.57;49.36;;
66459;Laerm;70605;52.550;4.730;2024-01-30T00:31:37;44.29;43.39;45.47;;
66459;Laerm;70605;52.550;4.730;2024-01-30T00:31:48;44.29;43.43;46.41;;
66459;Laerm;70605;52.550;4.730;2024-01-30T00:31:58;44.26;43.27;45.59;;
66459;Laerm;70605;52.550;4.730;2024-01-30T00:32:08;44.56;43.54;48.19;;
66459;Laerm;70605;52.550;4.730;2024-01-30T00:32:18;44.51;43.24;48.64;;
66459;Laerm;70605;52.550;4.730;2024-01-30T00:32:29;44.52;43.51;47.56;;
66459;Laerm;70605;52.550;4.730;2024-01-30T00:32:39;44.49;43.56;48.70;;
66459;Laerm;70605;52.550;4.730;2024-01-30T00:32:50;44.65;43.55;48.50;;
66459;Laerm;70605;52.550;4.730;2024-01-30T00:33:00;44.49;43.44;47.03;;
66459;Laerm;70605;52.550;4.730;2024-01-30T00:33:11;44.36;43.38;46.19;;
66459;Laerm;70605;52.550;4.730;2024-01-30T00:33:21;44.33;43.41;46.11;;
66459;Laerm;70605;52.550;4.730;2024-01-30T00:33:31;44.37;43.32;48.95;;
66459;Laerm;70605;52.550;4.730;2024-01-30T00:33:42;44.61;43.36;47.82;;
66459;Laerm;70605;52.550;4.730;2024-01-30T00:33:52;44.39;43.26;46.78;;
66459;Laerm;70605;52.550;4.730;2024-01-30T00:34:02;44.60;43.65;47.13;;
66459;Laerm;70605;52.550;4.730;2024-01-30T00:34:13;44.40;43.52;47.28;;
66459;Laerm;70605;52.550;4.730;2024-01-30T00:34:23;45.00;43.48;52.73;;
66459;Laerm;70605;52.550;4.730;2024-01-30T00:34:33;44.81;43.47;54.22;;
66459;Laerm;70605;52.550;4.730;2024-01-30T00:34:43;45.27;43.74;54.28;;
66459;Laerm;70605;52.550;4.730;2024-01-30T00:34:54;44.66;43.56;47.93;;
66459;Laerm;70605;52.550;4.730;2024-01-30T00:35:04;44.78;43.49;49.07;;
66459;Laerm;70605;52.550;4.730;2024-01-30T00:35:14;45.81;43.76;55.13;;
66459;Laerm;70605;52.550;4.730;2024-01-30T00:35:25;44.76;43.54;48.01;;
66459;Laerm;70605;52.550;4.730;2024-01-30T00:35:35;44.74;43.47;47.51;;
66459;Laerm;70605;52.550;4.730;2024-01-30T00:35:45;44.69;43.55;47.40;;
66459;Laerm;70605;52.550;4.730;2024-01-30T00:35:56;44.47;43.62;45.99;;
66459;Laerm;70605;52.550;4.730;2024-01-30T00:36:07;44.49;43.50;46.36;;
66459;Laerm;70605;52.550;4.730;2024-01-30T00:36:17;44.56;43.53;50.37;;
66459;Laerm;70605;52.550;4.730;2024-01-30T00:36:27;44.87;43.63;53.72;;
66459;Laerm;70605;52.550;4.730;2024-01-30T00:36:40;45.21;43.45;51.03;;
66459;Laerm;70605;52.550;4.730;2024-01-30T00:36:50;45.14;43.84;50.54;;
66459;Laerm;70605;52.550;4.730;2024-01-30T00:37:00;46.29;43.67;53.50;;
66459;Laerm;70605;52.550;4.730;2024-01-30T00:37:11;45.04;43.48;50.15;;
66459;Laerm;70605;52.550;4.730;2024-01-30T00:37:21;45.34;43.71;49.27;;
66459;Laerm;70605;52.550;4.730;2024-01-30T00:37:32;44.99;43.61;51.38;;
66459;Laerm;70605;52.550;4.730;2024-01-30T00:37:42;45.06;43.69;49.96;;
66459;Laerm;70605;52.550;4.730;2024-01-30T00:37:52;44.52;43.54;48.53;;
66459;Laerm;70605;52.550;4.730;2024-01-30T00:38:03;44.28;43.57;45.42;;
66459;Laerm;70605;52.550;4.730;2024-01-30T00:38:13;44.49;43.42;48.99;;
66459;Laerm;70605;52.550;4.730;2024-01-30T00:38:23;45.04;43.63;52.17;;
66459;Laerm;70605;52.550;4.730;2024-01-30T00:38:33;44.80;43.46;50.86;;
66459;Laerm;70605;52.550;4.730;2024-01-30T00:38:44;45.17;43.43;51.82;;
66459;Laerm;70605;52.550;4.730;2024-01-30T00:38:54;44.46;43.56;46.15;;
66459;Laerm;70605;52.550;4.730;2024-01-30T00:39:04;44.33;43.52;45.51;;
66459;Laerm;70605;52.550;4.730;2024-01-30T00:39:17;45.64;43.58;54.58;;
66459;Laerm;70605;52.550;4.730;2024-01-30T00:39:29;45.01;43.48;50.79;;
66459;Laerm;70605;52.550;4.730;2024-01-30T00:39:39;45.18;43.41;50.73;;
66459;Laerm;70605;52.550;4.730;2024-01-30T00:39:50;44.51;43.41;46.85;;
66459;Laerm;70605;52.550;4.730;2024-01-30T00:40:00;44.35;43.30;46.52;;
66459;Laerm;70605;52.550;4.730;2024-01-30T00:40:10;44.33;43.35;46.61;;
66459;Laerm;70605;52.550;4.730;2024-01-30T00:40:25;44.57;43.41;47.04;;
66459;Laerm;70605;52.550;4.730;2024-01-30T00:40:36;44.61;43.53;51.15;;
66459;Laerm;70605;52.550;4.730;2024-01-30T00:40:46;44.61;43.50;49.26;;
66459;Laerm;70605;52.550;4.730;2024-01-30T00:40:56;45.56;43.61;50.77;;
66459;Laerm;70605;52.550;4.730;2024-01-30T00:41:07;46.85;43.69;57.00;;
66459;Laerm;70605;52.550;4.730;2024-01-30T00:41:18;45.39;43.43;55.05;;
66459;Laerm;70605;52.550;4.730;2024-01-30T00:41:29;44.76;43.27;47.93;;
66459;Laerm;70605;52.550;4.730;2024-01-30T00:41:39;44.41;43.44;48.02;;
66459;Laerm;70605;52.550;4.730;2024-01-30T00:41:49;44.69;43.52;47.86;;
66459;Laerm;70605;52.550;4.730;2024-01-30T00:42:00;44.30;43.29;45.28;;
66459;Laerm;70605;52.550;4.730;2024-01-30T00:42:10;44.35;43.36;49.12;;
66459;Laerm;70605;52.550;4.730;2024-01-30T00:42:20;44.35;43.40;47.32;;
66459;Laerm;70605;52.550;4.730;2024-01-30T00:42:31;44.31;43.56;45.60;;
66459;Laerm;70605;52.550;4.730;2024-01-30T00:42:42;44.29;43.43;45.07;;
66459;Laerm;70605;52.550;4.730;2024-01-30T00:42:52;44.46;43.44;46.39;;
66459;Laerm;70605;52.550;4.730;2024-01-30T00:43:03;44.55;43.35;47.77;;
66459;Laerm;70605;52.550;4.730;2024-01-30T00:43:13;45.16;43.46;51.83;;
66459;Laerm;70605;52.550;4.730;2024-01-30T00:43:23;44.69;43.54;47.75;;
66459;Laerm;70605;52.550;4.730;2024-01-30T00:43:35;44.43;43.39;47.80;;
66459;Laerm;70605;52.550;4.730;2024-01-30T00:43:45;44.40;43.56;46.24;;
66459;Laerm;70605;52.550;4.730;2024-01-30T00:43:55;44.33;42.97;46.41;;
66459;Laerm;70605;52.550;4.730;2024-01-30T00:44:06;44.41;43.15;47.84;;
66459;Laerm;70605;52.550;4.730;2024-01-30T00:44:16;44.69;43.43;49.47;;
66459;Laerm;70605;52.550;4.730;2024-01-30T00:44:26;45.35;43.39;54.77;;
66459;Laerm;70605;52.550;4.730;2024-01-30T00:44:37;45.01;43.41;48.03;;
66459;Laerm;70605;52.550;4.730;2024-01-30T00:44:48;44.51;43.49;48.01;;
66459;Laerm;70605;52.550;4.730;2024-01-30T00:44:58;44.78;43.49;48.00;;
66459;Laerm;70605;52.550;4.730;2024-01-30T00:45:15;44.87;43.49;50.15;;
66459;Laerm;70605;52.550;4.730;2024-01-30T00:45:25;44.36;43.46;46.85;;
66459;Laerm;70605;52.550;4.730;2024-01-30T00:45:35;44.46;43.10;46.89;;
66459;Laerm;70605;52.550;4.730;2024-01-30T00:45:46;44.43;43.12;47.77;;
66459;Laerm;70605;52.550;4.730;2024-01-30T00:45:56;44.37;43.45;47.08;;
66459;Laerm;70605;52.550;4.730;2024-01-30T00:46:08;44.52;43.39;48.26;;
66459;Laerm;70605;52.550;4.730;2024-01-30T00:46:18;44.64;43.53;48.58;;
66459;Laerm;70605;52.550;4.730;2024-01-30T00:46:28;44.45;43.45;46.41;;
66459;Laerm;70605;52.550;4.730;2024-01-30T00:46:38;44.32;43.46;45.61;;
66459;Laerm;70605;52.550;4.730;2024-01-30T00:46:49;44.59;43.36;49.07;;
66459;Laerm;70605;52.550;4.730;2024-01-30T00:46:59;44.32;43.28;46.33;;
66459;Laerm;70605;52.550;4.730;2024-01-30T00:47:09;44.27;43.31;48.22;;
66459;Laerm;70605;52.550;4.730;2024-01-30T00:47:20;44.31;43.33;45.62;;
66459;Laerm;70605;52.550;4.730;2024-01-30T00:47:30;44.62;43.36;48.61;;
66459;Laerm;70605;52.550;4.730;2024-01-30T00:47:40;45.29;43.50;49.93;;
66459;Laerm;70605;52.550;4.730;2024-01-30T00:47:50;44.58;43.52;46.71;;
66459;Laerm;70605;52.550;4.730;2024-01-30T00:48:01;44.31;43.01;45.87;;
66459;Laerm;70605;52.550;4.730;2024-01-30T00:48:11;44.31;43.03;45.79;;
66459;Laerm;70605;52.550;4.730;2024-01-30T00:48:21;44.39;43.37;47.56;;
66459;Laerm;70605;52.550;4.730;2024-01-30T00:48:31;44.31;43.43;47.98;;
66459;Laerm;70605;52.550;4.730;2024-01-30T00:48:42;44.24;43.34;45.35;;
66459;Laerm;70605;52.550;4.730;2024-01-30T00:48:52;44.21;43.37;45.18;;
66459;Laerm;70605;52.550;4.730;2024-01-30T00:49:02;44.51;43.36;47.09;;
66459;Laerm;70605;52.550;4.730;2024-01-30T00:49:14;45.46;43.46;51.55;;
66459;Laerm;70605;52.550;4.730;2024-01-30T00:49:24;44.52;43.31;48.36;;
66459;Laerm;70605;52.550;4.730;2024-01-30T00:49:35;44.62;43.48;49.23;;
66459;Laerm;70605;52.550;4.730;2024-01-30T00:49:45;44.66;43.35;48.17;;
66459;Laerm;70605;52.550;4.730;2024-01-30T00:49:55;44.27;43.37;45.82;;
66459;Laerm;70605;52.550;4.730;2024-01-30T00:50:06;44.52;43.52;46.98;;
66459;Laerm;70605;52.550;4.730;2024-01-30T00:50:16;44.39;43.36;50.97;;
66459;Laerm;70605;52.550;4.730;2024-01-30T00:50:26;44.23;43.41;45.62;;
66459;Laerm;70605;52.550;4.730;2024-01-30T00:50:37;44.35;43.54;46.25;;
66459;Laerm;70605;52.550;4.730;2024-01-30T00:50:47;44.44;43.40;46.92;;
66459;Laerm;70605;52.550;4.730;2024-01-30T00:50:57;44.56;43.53;47.69;;
66459;Laerm;70605;52.550;4.730;2024-01-30T00:51:07;44.24;43.31;45.82;;
66459;Laerm;70605;52.550;4.730;2024-01-30T00:51:18;44.25;43.30;45.48;;
66459;Laerm;70605;52.550;4.730;2024-01-30T00:51:28;44.20;43.32;45.06;;
66459;Laerm;70605;52.550;4.730;2024-01-30T00:51:39;44.26;43.33;45.75;;
66459;Laerm;70605;52.550;4.730;2024-01-30T00:51:50;44.30;43.40;45.51;;
66459;Laerm;70605;52.550;4.730;2024-01-30T00:52:00;44.24;43.24;47.11;;
66459;Laerm;70605;52.550;4.730;2024-01-30T00:52:10;44.55;43.32;49.14;;
66459;Laerm;70605;52.550;4.730;2024-01-30T00:52:21;44.32;43.39;46.05;;
66459;Laerm;70605;52.550;4.730;2024-01-30T00:52:31;44.18;43.12;46.82;;
66459;Laerm;70605;52.550;4.730;2024-01-30T00:52:43;44.57;43.55;48.68;;
66459;Laerm;70605;52.550;4.730;2024-01-30T00:52:55;44.29;43.13;46.37;;
66459;Laerm;70605;52.550;4.730;2024-01-30T00:53:05;44.13;43.25;44.85;;
66459;Laerm;70605;52.550;4.730;2024-01-30T00:53:15;44.30;43.50;46.87;;
66459;Laerm;70605;52.550;4.730;2024-01-30T00:53:26;44.29;43.43;45.88;;
66459;Laerm;70605;52.550;4.730;2024-01-30T00:53:36;44.18;43.33;45.11;;
66459;Laerm;70605;52.550;4.730;2024-01-30T00:53:46;44.31;43.37;46.59;;
66459;Laerm;70605;52.550;4.730;2024-01-30T00:53:56;44.38;43.39;47.97;;
66459;Laerm;70605;52.550;4.730;2024-01-30T00:54:07;44.23;43.50;45.41;;
66459;Laerm;70605;52.550;4.730;2024-01-30T00:54:18;44.14;43.21;45.27;;
66459;Laerm;70605;52.550;4.730;2024-01-30T00:54:28;44.12;43.40;45.61;;
66459;Laerm;70605;52.550;4.730;2024-01-30T00:54:38;44.19;43.24;46.56;;
66459;Laerm;70605;52.550;4.730;2024-01-30T00:54:48;44.13;43.25;46.39;;
66459;Laerm;70605;52.550;4.730;2024-01-30T00:54:59;44.36;43.35;46.29;;
66459;Laerm;70605;52.550;4.730;2024-01-30T00:55:09;44.12;42.63;45.45;;
66459;Laerm;70605;52.550;4.730;2024-01-30T00:55:20;44.16;43.13;45.37;;
66459;Laerm;70605;52.550;4.730;2024-01-30T00:55:30;44.06;42.76;45.07;;
66459;Laerm;70605;52.550;4.730;2024-01-30T00:55:40;44.28;43.46;46.42;;
66459;Laerm;70605;52.550;4.730;2024-01-30T00:55:51;44.12;43.35;45.31;;
66459;Laerm;70605;52.550;4.730;2024-01-30T00:56:01;44.16;43.20;45.32;;
66459;Laerm;70605;52.550;4.730;2024-01-30T00:56:11;44.27;43.44;46.75;;
66459;Laerm;70605;52.550;4.730;2024-01-30T00:56:21;44.16;43.27;45.19;;
66459;Laerm;70605;52.550;4.730;2024-01-30T00:56:32;44.15;42.91;46.22;;
66459;Laerm;70605;52.550;4.730;2024-01-30T00:56:43;44.31;43.34;46.57;;
66459;Laerm;70605;52.550;4.730;2024-01-30T00:56:53;44.33;43.29;47.97;;
66459;Laerm;70605;52.550;4.730;2024-01-30T00:57:03;44.26;43.26;46.06;;
66459;Laerm;70605;52.550;4.730;2024-01-30T00:57:14;44.08;43.15;45.05;;
66459;Laerm;70605;52.550;4.730;2024-01-30T00:57:24;44.08;43.20;45.35;;
66459;Laerm;70605;52.550;4.730;2024-01-30T00:57:34;44.61;43.37;48.10;;
66459;Laerm;70605;52.550;4.730;2024-01-30T00:57:45;44.40;43.14;47.82;;
66459;Laerm;70605;52.550;4.730;2024-01-30T00:57:55;44.26;43.15;49.80;;
66459;Laerm;70605;52.550;4.730;2024-01-30T00:58:06;44.76;43.36;47.95;;
66459;Laerm;70605;52.550;4.730;2024-01-30T00:58:16;44.92;43.30;50.27;;
66459;Laerm;70605;52.550;4.730;2024-01-30T00:58:26;44.57;43.26;47.76;;
66459;Laerm;70605;52.550;4.730;2024-01-30T00:58:37;44.02;43.15;44.95;;